sensor_id;sensor_type;location;lat;lon;timestamp;pressure;altitude;pressure_sealevel;temperature;humidity
75538;BME280;64121;48.666;8.114;2023-02-28T00:01:03;100792.09;;;-1.75;64.67
75538;BME280;64121;48.666;8.114;2023-02-28T00:03:28;100785.25;;;-1.78;65.10
75538;BME280;64121;48.666;8.114;2023-02-28T00:05:54;100786.06;;;-1.77;65.21
75538;BME280;64121;48.666;8.114;2023-02-28T00:08:20;100784.09;;;-1.82;65.57
75538;BME280;64121;48.666;8.114;2023-02-28T00:10:46;100791.03;;;-1.74;65.24
75538;BME280;64121;48.666;8.114;2023-02-28T00:13:11;100789.69;;;-1.72;65.26
75538;BME280;64121;48.666;8.114;2023-02-28T00:15:36;100793.44;;;-1.78;65.54
75538;BME280;64121;48.666;8.114;2023-02-28T00:18:02;100788.72;;;-1.83;65.90
75538;BME280;64121;48.666;8.114;2023-02-28T00:20:27;100790.25;;;-1.87;66.36
75538;BME280;64121;48.666;8.114;2023-02-28T00:22:53;100788.72;;;-1.83;65.97
75538;BME280;64121;48.666;8.114;2023-02-28T00:25:22;100791.09;;;-1.86;66.55
75538;BME280;64121;48.666;8.114;2023-02-28T00:27:48;100786.72;;;-1.87;66.95
75538;BME280;64121;48.666;8.114;2023-02-28T00:30:15;100786.31;;;-1.96;66.93
75538;BME280;64121;48.666;8.114;2023-02-28T00:32:41;100786.38;;;-1.91;66.85
75538;BME280;64121;48.666;8.114;2023-02-28T00:35:08;100789.69;;;-1.89;67.02
75538;BME280;64121;48.666;8.114;2023-02-28T00:37:34;100787.47;;;-1.92;67.33
75538;BME280;64121;48.666;8.114;2023-02-28T00:39:59;100786.88;;;-1.94;67.34
75538;BME280;64121;48.666;8.114;2023-02-28T00:42:26;100792.16;;;-1.87;67.31
75538;BME280;64121;48.666;8.114;2023-02-28T00:44:51;100778.69;;;-1.94;68.06
75538;BME280;64121;48.666;8.114;2023-02-28T00:47:17;100784.22;;;-2.05;68.61
75538;BME280;64121;48.666;8.114;2023-02-28T00:49:42;100782.56;;;-2.06;68.59
75538;BME280;64121;48.666;8.114;2023-02-28T00:52:07;100788.84;;;-2.06;69.36
75538;BME280;64121;48.666;8.114;2023-02-28T00:54:33;100788.50;;;-2.09;69.14
75538;BME280;64121;48.666;8.114;2023-02-28T00:56:58;100777.59;;;-2.09;69.85
75538;BME280;64121;48.666;8.114;2023-02-28T00:59:25;100780.66;;;-2.06;69.97
75538;BME280;64121;48.666;8.114;2023-02-28T01:01:51;100782.91;;;-2.03;69.99
75538;BME280;64121;48.666;8.114;2023-02-28T01:04:16;100781.59;;;-2.00;69.17
75538;BME280;64121;48.666;8.114;2023-02-28T01:06:42;100783.38;;;-2.06;70.10
75538;BME280;64121;48.666;8.114;2023-02-28T01:09:08;100783.06;;;-1.93;70.16
75538;BME280;64121;48.666;8.114;2023-02-28T01:11:33;100781.69;;;-1.95;70.13
75538;BME280;64121;48.666;8.114;2023-02-28T01:13:59;100781.75;;;-1.90;70.05
75538;BME280;64121;48.666;8.114;2023-02-28T01:16:27;100776.88;;;-1.88;70.16
75538;BME280;64121;48.666;8.114;2023-02-28T01:18:52;100779.34;;;-1.87;69.96
75538;BME280;64121;48.666;8.114;2023-02-28T01:21:20;100776.88;;;-1.88;70.32
75538;BME280;64121;48.666;8.114;2023-02-28T01:23:46;100777.44;;;-1.86;70.50
75538;BME280;64121;48.666;8.114;2023-02-28T01:26:13;100776.31;;;-1.90;70.66
75538;BME280;64121;48.666;8.114;2023-02-28T01:28:39;100785.41;;;-1.85;70.79
75538;BME280;64121;48.666;8.114;2023-02-28T01:31:05;100779.97;;;-1.85;71.03
75538;BME280;64121;48.666;8.114;2023-02-28T01:33:32;100786.56;;;-1.80;71.29
75538;BME280;64121;48.666;8.114;2023-02-28T01:35:58;100779.47;;;-1.81;71.89
75538;BME280;64121;48.666;8.114;2023-02-28T01:38:24;100788.72;;;-1.83;72.73
75538;BME280;64121;48.666;8.114;2023-02-28T01:40:50;100782.25;;;-1.76;71.91
75538;BME280;64121;48.666;8.114;2023-02-28T01:43:20;100780.78;;;-1.84;72.28
75538;BME280;64121;48.666;8.114;2023-02-28T01:45:46;100784.91;;;-1.81;72.05
75538;BME280;64121;48.666;8.114;2023-02-28T01:48:12;100788.16;;;-1.85;72.35
75538;BME280;64121;48.666;8.114;2023-02-28T01:50:41;100787.41;;;-1.80;72.80
75538;BME280;64121;48.666;8.114;2023-02-28T01:53:11;100788.72;;;-1.83;72.56
75538;BME280;64121;48.666;8.114;2023-02-28T01:55:39;100787.06;;;-1.84;72.76
75538;BME280;64121;48.666;8.114;2023-02-28T01:58:07;100789.22;;;-1.86;72.86
75538;BME280;64121;48.666;8.114;2023-02-28T02:00:32;100787.06;;;-1.84;72.88
75538;BME280;64121;48.666;8.114;2023-02-28T02:03:00;100791.69;;;-1.84;72.88
75538;BME280;64121;48.666;8.114;2023-02-28T02:05:28;100787.53;;;-1.87;72.70
75538;BME280;64121;48.666;8.114;2023-02-28T02:07:57;100786.81;;;-1.82;72.84
75538;BME280;64121;48.666;8.114;2023-02-28T02:10:27;100785.81;;;-1.93;72.98
75538;BME280;64121;48.666;8.114;2023-02-28T02:13:04;100786.63;;;-1.92;73.28
75538;BME280;64121;48.666;8.114;2023-02-28T02:15:34;100780.09;;;-1.91;73.57
75538;BME280;64121;48.666;8.114;2023-02-28T02:18:04;100779.13;;;-2.02;73.72
75538;BME280;64121;48.666;8.114;2023-02-28T02:24:15;100777.03;;;-2.11;74.49
75538;BME280;64121;48.666;8.114;2023-02-28T02:27:08;100777.78;;;-1.99;74.34
75538;BME280;64121;48.666;8.114;2023-02-28T02:30:02;100771.56;;;-2.11;74.65
75538;BME280;64121;48.666;8.114;2023-02-28T02:32:54;100775.63;;;-2.14;74.98
75538;BME280;64121;48.666;8.114;2023-02-28T02:35:27;100777.78;;;-2.16;74.52
75538;BME280;64121;48.666;8.114;2023-02-28T02:37:59;100774.13;;;-2.22;75.24
75538;BME280;64121;48.666;8.114;2023-02-28T02:40:31;100770.34;;;-2.21;75.30
75538;BME280;64121;48.666;8.114;2023-02-28T02:43:01;100774.47;;;-2.18;75.33
75538;BME280;64121;48.666;8.114;2023-02-28T02:45:32;100771.28;;;-2.27;75.62
75538;BME280;64121;48.666;8.114;2023-02-28T02:47:59;100776.84;;;-2.22;75.57
75538;BME280;64121;48.666;8.114;2023-02-28T02:50:31;100778.75;;;-2.22;75.94
75538;BME280;64121;48.666;8.114;2023-02-28T02:53:00;100781.25;;;-2.21;75.46
75538;BME280;64121;48.666;8.114;2023-02-28T02:55:26;100780.41;;;-2.21;75.62
75538;BME280;64121;48.666;8.114;2023-02-28T02:57:56;100780.66;;;-2.23;75.60
75538;BME280;64121;48.666;8.114;2023-02-28T03:00:26;100787.34;;;-2.14;75.46
75538;BME280;64121;48.666;8.114;2023-02-28T03:02:54;100781.31;;;-2.16;75.29
75538;BME280;64121;48.666;8.114;2023-02-28T03:05:24;100777.28;;;-2.13;75.38
75538;BME280;64121;48.666;8.114;2023-02-28T03:07:51;100776.44;;;-2.14;75.65
75538;BME280;64121;48.666;8.114;2023-02-28T03:10:33;100779.66;;;-2.17;75.85
75538;BME280;64121;48.666;8.114;2023-02-28T03:13:37;100775.28;;;-2.18;75.80
75538;BME280;64121;48.666;8.114;2023-02-28T03:16:22;100766.66;;;-2.26;76.06
75538;BME280;64121;48.666;8.114;2023-02-28T03:18:55;100772.13;;;-2.26;76.37
75538;BME280;64121;48.666;8.114;2023-02-28T03:21:28;100769.16;;;-2.25;76.32
75538;BME280;64121;48.666;8.114;2023-02-28T03:24:03;100770.97;;;-2.30;76.53
75538;BME280;64121;48.666;8.114;2023-02-28T03:26:31;100772.88;;;-2.31;77.00
75538;BME280;64121;48.666;8.114;2023-02-28T03:29:02;100763.28;;;-2.33;76.50
75538;BME280;64121;48.666;8.114;2023-02-28T03:31:33;100774.44;;;-2.35;77.04
75538;BME280;64121;48.666;8.114;2023-02-28T03:34:04;100769.47;;;-2.38;77.25
75538;BME280;64121;48.666;8.114;2023-02-28T03:36:36;100767.69;;;-2.44;77.11
75538;BME280;64121;48.666;8.114;2023-02-28T03:39:06;100759.06;;;-2.41;77.02
75538;BME280;64121;48.666;8.114;2023-02-28T03:41:36;100764.06;;;-2.50;77.67
75538;BME280;64121;48.666;8.114;2023-02-28T03:44:06;100757.78;;;-2.50;77.82
75538;BME280;64121;48.666;8.114;2023-02-28T03:46:37;100753.69;;;-2.64;78.35
75538;BME280;64121;48.666;8.114;2023-02-28T03:49:09;100753.81;;;-2.59;78.12
75538;BME280;64121;48.666;8.114;2023-02-28T03:51:38;100759.63;;;-2.67;78.60
75538;BME280;64121;48.666;8.114;2023-02-28T03:54:10;100748.25;;;-2.64;78.23
75538;BME280;64121;48.666;8.114;2023-02-28T03:56:38;100758.56;;;-2.66;78.39
75538;BME280;64121;48.666;8.114;2023-02-28T03:59:07;100765.22;;;-2.74;78.94
75538;BME280;64121;48.666;8.114;2023-02-28T04:01:38;100757.31;;;-2.76;79.12
75538;BME280;64121;48.666;8.114;2023-02-28T04:04:04;100762.25;;;-2.72;79.23
75538;BME280;64121;48.666;8.114;2023-02-28T04:06:32;100760.72;;;-2.80;79.04
75538;BME280;64121;48.666;8.114;2023-02-28T04:08:58;100762.50;;;-2.74;79.25
75538;BME280;64121;48.666;8.114;2023-02-28T04:11:32;100762.50;;;-2.74;79.18
75538;BME280;64121;48.666;8.114;2023-02-28T04:13:58;100765.72;;;-2.77;79.23
75538;BME280;64121;48.666;8.114;2023-02-28T04:16:23;100764.91;;;-2.78;78.85
75538;BME280;64121;48.666;8.114;2023-02-28T04:18:48;100760.97;;;-2.82;79.46
75538;BME280;64121;48.666;8.114;2023-02-28T04:21:14;100770.47;;;-2.84;79.71
75538;BME280;64121;48.666;8.114;2023-02-28T04:23:39;100769.16;;;-2.82;79.40
75538;BME280;64121;48.666;8.114;2023-02-28T04:26:05;100764.69;;;-2.88;79.55
75538;BME280;64121;48.666;8.114;2023-02-28T04:28:31;100764.44;;;-2.86;79.82
75538;BME280;64121;48.666;8.114;2023-02-28T04:30:57;100766.22;;;-2.92;79.83
75538;BME280;64121;48.666;8.114;2023-02-28T04:33:24;100768.47;;;-2.89;79.99
75538;BME280;64121;48.666;8.114;2023-02-28T04:35:58;100763.03;;;-2.89;79.77
75538;BME280;64121;48.666;8.114;2023-02-28T04:38:23;100767.88;;;-2.91;79.81
75538;BME280;64121;48.666;8.114;2023-02-28T04:40:48;100757.56;;;-2.89;79.60
75538;BME280;64121;48.666;8.114;2023-02-28T04:43:13;100762.69;;;-2.92;79.44
75538;BME280;64121;48.666;8.114;2023-02-28T04:45:40;100758.97;;;-2.86;79.71
75538;BME280;64121;48.666;8.114;2023-02-28T04:48:05;100757.00;;;-2.91;79.84
75538;BME280;64121;48.666;8.114;2023-02-28T04:50:31;100760.53;;;-2.90;80.21
75538;BME280;64121;48.666;8.114;2023-02-28T04:52:56;100753.94;;;-2.94;80.25
75538;BME280;64121;48.666;8.114;2023-02-28T04:55:21;100764.69;;;-2.88;80.34
75538;BME280;64121;48.666;8.114;2023-02-28T04:57:47;100767.63;;;-2.89;80.46
75538;BME280;64121;48.666;8.114;2023-02-28T05:00:13;100773.00;;;-2.94;80.73
75538;BME280;64121;48.666;8.114;2023-02-28T05:02:39;100768.63;;;-2.95;80.90
75538;BME280;64121;48.666;8.114;2023-02-28T05:05:05;100769.69;;;-2.96;81.29
75538;BME280;64121;48.666;8.114;2023-02-28T05:07:31;100765.66;;;-2.94;80.80
75538;BME280;64121;48.666;8.114;2023-02-28T05:09:56;100771.78;;;-2.87;80.67
75538;BME280;64121;48.666;8.114;2023-02-28T05:12:21;100760.31;;;-2.89;81.06
75538;BME280;64121;48.666;8.114;2023-02-28T05:14:47;100760.88;;;-2.87;81.13
75538;BME280;64121;48.666;8.114;2023-02-28T05:17:12;100768.31;;;-2.82;80.92
75538;BME280;64121;48.666;8.114;2023-02-28T05:19:38;100759.31;;;-2.83;80.23
75538;BME280;64121;48.666;8.114;2023-02-28T05:22:04;100761.94;;;-2.88;81.19
75538;BME280;64121;48.666;8.114;2023-02-28T05:24:29;100766.09;;;-2.85;81.26
75538;BME280;64121;48.666;8.114;2023-02-28T05:26:55;100770.47;;;-2.84;81.54
75538;BME280;64121;48.666;8.114;2023-02-28T05:29:20;100760.88;;;-2.87;81.40
75538;BME280;64121;48.666;8.114;2023-02-28T05:31:46;100762.78;;;-2.87;81.20
75538;BME280;64121;48.666;8.114;2023-02-28T05:34:11;100760.38;;;-2.84;81.29
75538;BME280;64121;48.666;8.114;2023-02-28T05:36:38;100760.38;;;-2.84;81.36
75538;BME280;64121;48.666;8.114;2023-02-28T05:39:05;100758.41;;;-2.88;81.61
75538;BME280;64121;48.666;8.114;2023-02-28T05:41:30;100761.22;;;-2.83;81.25
75538;BME280;64121;48.666;8.114;2023-02-28T05:43:57;100761.09;;;-2.77;81.38
75538;BME280;64121;48.666;8.114;2023-02-28T05:46:22;100759.66;;;-2.79;81.27
75538;BME280;64121;48.666;8.114;2023-02-28T05:48:48;100760.03;;;-2.76;81.19
75538;BME280;64121;48.666;8.114;2023-02-28T05:51:14;100763.59;;;-2.75;81.12
75538;BME280;64121;48.666;8.114;2023-02-28T05:53:41;100765.97;;;-2.79;81.36
75538;BME280;64121;48.666;8.114;2023-02-28T05:56:06;100769.03;;;-2.75;81.49
75538;BME280;64121;48.666;8.114;2023-02-28T05:58:32;100763.44;;;-2.68;81.40
75538;BME280;64121;48.666;8.114;2023-02-28T06:00:57;100761.88;;;-2.64;81.23
75538;BME280;64121;48.666;8.114;2023-02-28T06:03:23;100761.28;;;-2.66;81.33
75538;BME280;64121;48.666;8.114;2023-02-28T06:05:49;100764.88;;;-2.49;80.79
75538;BME280;64121;48.666;8.114;2023-02-28T06:08:14;100769.03;;;-2.47;81.01
75538;BME280;64121;48.666;8.114;2023-02-28T06:10:41;100768.53;;;-2.44;80.96
75538;BME280;64121;48.666;8.114;2023-02-28T06:13:06;100766.88;;;-2.45;80.81
75538;BME280;64121;48.666;8.114;2023-02-28T06:15:31;100781.53;;;-2.34;80.78
75538;BME280;64121;48.666;8.114;2023-02-28T06:17:57;100771.00;;;-2.42;81.05
75538;BME280;64121;48.666;8.114;2023-02-28T06:20:24;100780.94;;;-2.36;80.85
75538;BME280;64121;48.666;8.114;2023-02-28T06:22:50;100789.22;;;-2.31;80.70
75538;BME280;64121;48.666;8.114;2023-02-28T06:25:16;100785.41;;;-2.30;80.60
75538;BME280;64121;48.666;8.114;2023-02-28T06:27:43;100786.25;;;-2.29;80.91
75538;BME280;64121;48.666;8.114;2023-02-28T06:30:10;100797.34;;;-2.19;80.82
75538;BME280;64121;48.666;8.114;2023-02-28T06:32:35;100793.31;;;-2.17;80.47
75538;BME280;64121;48.666;8.114;2023-02-28T06:35:00;100800.66;;;-2.17;80.60
75538;BME280;64121;48.666;8.114;2023-02-28T06:37:26;100798.66;;;-2.05;80.35
75538;BME280;64121;48.666;8.114;2023-02-28T06:39:51;100806.03;;;-2.05;80.55
75538;BME280;64121;48.666;8.114;2023-02-28T06:42:16;100809.34;;;-2.03;80.38
75538;BME280;64121;48.666;8.114;2023-02-28T06:44:43;100804.63;;;-2.08;80.53
75538;BME280;64121;48.666;8.114;2023-02-28T06:47:09;100803.91;;;-2.03;80.42
75538;BME280;64121;48.666;8.114;2023-02-28T06:49:35;100806.47;;;-1.97;80.63
75538;BME280;64121;48.666;8.114;2023-02-28T06:52:00;100815.72;;;-1.98;80.92
75538;BME280;64121;48.666;8.114;2023-02-28T06:54:26;100816.31;;;-1.96;80.65
75538;BME280;64121;48.666;8.114;2023-02-28T06:56:51;100818.63;;;-1.88;80.18
75538;BME280;64121;48.666;8.114;2023-02-28T06:59:17;100809.13;;;-1.85;80.53
75538;BME280;64121;48.666;8.114;2023-02-28T07:01:43;100816.13;;;-1.89;80.54
75538;BME280;64121;48.666;8.114;2023-02-28T07:04:09;100820.88;;;-1.85;80.37
75538;BME280;64121;48.666;8.114;2023-02-28T07:06:34;100829.97;;;-1.79;80.60
75538;BME280;64121;48.666;8.114;2023-02-28T07:09:00;100817.72;;;-1.76;80.56
75538;BME280;64121;48.666;8.114;2023-02-28T07:11:27;100819.63;;;-1.77;80.43
75538;BME280;64121;48.666;8.114;2023-02-28T07:13:53;100833.53;;;-1.62;80.81
75538;BME280;64121;48.666;8.114;2023-02-28T07:16:18;100829.53;;;-1.71;80.36
75538;BME280;64121;48.666;8.114;2023-02-28T07:18:45;100831.31;;;-1.65;80.36
75538;BME280;64121;48.666;8.114;2023-02-28T07:21:10;100823.94;;;-1.64;79.97
75538;BME280;64121;48.666;8.114;2023-02-28T07:23:38;100830.88;;;-1.57;79.83
75538;BME280;64121;48.666;8.114;2023-02-28T07:26:04;100834.75;;;-1.53;79.72
75538;BME280;64121;48.666;8.114;2023-02-28T07:28:29;100831.38;;;-1.43;79.25
75538;BME280;64121;48.666;8.114;2023-02-28T07:30:55;100829.72;;;-1.44;79.30
75538;BME280;64121;48.666;8.114;2023-02-28T07:33:20;100826.19;;;-1.44;79.35
75538;BME280;64121;48.666;8.114;2023-02-28T07:35:47;100837.16;;;-1.39;79.22
75538;BME280;64121;48.666;8.114;2023-02-28T07:38:12;100830.63;;;-1.38;78.99
75538;BME280;64121;48.666;8.114;2023-02-28T07:40:38;100828.72;;;-1.38;79.12
75538;BME280;64121;48.666;8.114;2023-02-28T07:43:03;100835.19;;;-1.27;78.54
75538;BME280;64121;48.666;8.114;2023-02-28T07:45:29;100838.22;;;-1.24;78.38
75538;BME280;64121;48.666;8.114;2023-02-28T07:47:55;100829.16;;;-1.29;78.27
75538;BME280;64121;48.666;8.114;2023-02-28T07:50:20;100823.88;;;-1.14;77.81
75538;BME280;64121;48.666;8.114;2023-02-28T07:52:47;100831.50;;;-1.16;78.04
75538;BME280;64121;48.666;8.114;2023-02-28T07:55:13;100830.09;;;-1.18;77.82
75538;BME280;64121;48.666;8.114;2023-02-28T07:57:39;100829.28;;;-1.19;78.05
75538;BME280;64121;48.666;8.114;2023-02-28T08:00:07;100831.25;;;-1.14;77.69
75538;BME280;64121;48.666;8.114;2023-02-28T08:02:33;100832.66;;;-1.12;77.44
75538;BME280;64121;48.666;8.114;2023-02-28T08:04:59;100834.91;;;-1.09;77.66
75538;BME280;64121;48.666;8.114;2023-02-28T08:07:25;100836.81;;;-1.09;77.25
75538;BME280;64121;48.666;8.114;2023-02-28T08:09:51;100844.81;;;-1.03;77.17
75538;BME280;64121;48.666;8.114;2023-02-28T08:12:17;100841.56;;;-1.00;77.09
75538;BME280;64121;48.666;8.114;2023-02-28T08:14:42;100851.25;;;-0.92;76.37
75538;BME280;64121;48.666;8.114;2023-02-28T08:17:09;100852.97;;;-0.86;76.04
75538;BME280;64121;48.666;8.114;2023-02-28T08:19:34;100845.41;;;-0.79;76.07
75538;BME280;64121;48.666;8.114;2023-02-28T08:21:59;100852.72;;;-0.84;75.68
75538;BME280;64121;48.666;8.114;2023-02-28T08:24:25;100855.47;;;-0.84;75.53
75538;BME280;64121;48.666;8.114;2023-02-28T08:26:51;100847.00;;;-0.83;75.75
75538;BME280;64121;48.666;8.114;2023-02-28T08:29:18;100848.31;;;-0.69;75.16
75538;BME280;64121;48.666;8.114;2023-02-28T08:31:44;100853.25;;;-0.66;75.06
75538;BME280;64121;48.666;8.114;2023-02-28T08:34:11;100844.03;;;-0.59;75.26
75538;BME280;64121;48.666;8.114;2023-02-28T08:36:36;100846.19;;;-0.62;74.32
75538;BME280;64121;48.666;8.114;2023-02-28T08:39:03;100847.41;;;-0.52;74.15
75538;BME280;64121;48.666;8.114;2023-02-28T08:41:29;100837.81;;;-0.55;74.15
75538;BME280;64121;48.666;8.114;2023-02-28T08:43:56;100848.25;;;-0.52;74.01
75538;BME280;64121;48.666;8.114;2023-02-28T08:46:21;100854.72;;;-0.58;73.91
75538;BME280;64121;48.666;8.114;2023-02-28T08:48:46;100839.78;;;-0.50;73.95
75538;BME280;64121;48.666;8.114;2023-02-28T08:51:13;100848.81;;;-0.50;73.64
75538;BME280;64121;48.666;8.114;2023-02-28T08:53:40;100842.25;;;-0.49;73.51
75538;BME280;64121;48.666;8.114;2023-02-28T08:56:07;100857.63;;;-0.43;73.48
75538;BME280;64121;48.666;8.114;2023-02-28T08:58:33;100857.63;;;-0.43;73.74
75538;BME280;64121;48.666;8.114;2023-02-28T09:01:00;100853.69;;;-0.30;73.06
75538;BME280;64121;48.666;8.114;2023-02-28T09:03:26;100852.75;;;-0.41;72.99
75538;BME280;64121;48.666;8.114;2023-02-28T09:05:53;100846.84;;;-0.33;73.04
75538;BME280;64121;48.666;8.114;2023-02-28T09:08:18;100852.41;;;-0.22;72.34
75538;BME280;64121;48.666;8.114;2023-02-28T09:10:44;100858.97;;;-0.23;71.63
75538;BME280;64121;48.666;8.114;2023-02-28T09:13:09;100857.97;;;-0.17;72.21
75538;BME280;64121;48.666;8.114;2023-02-28T09:15:36;100862.13;;;-0.10;71.82
75538;BME280;64121;48.666;8.114;2023-02-28T09:18:03;100856.44;;;-0.03;71.32
75538;BME280;64121;48.666;8.114;2023-02-28T09:20:28;100856.28;;;0.04;70.99
75538;BME280;64121;48.666;8.114;2023-02-28T09:22:54;100853.97;;;-0.05;71.08
75538;BME280;64121;48.666;8.114;2023-02-28T09:25:19;100860.97;;;0.08;71.19
75538;BME280;64121;48.666;8.114;2023-02-28T09:27:45;100854.13;;;0.11;71.13
75538;BME280;64121;48.666;8.114;2023-02-28T09:30:11;100850.84;;;0.09;71.16
75538;BME280;64121;48.666;8.114;2023-02-28T09:32:37;100857.75;;;0.16;71.09
75538;BME280;64121;48.666;8.114;2023-02-28T09:35:05;100856.88;;;0.11;70.00
75538;BME280;64121;48.666;8.114;2023-02-28T09:37:30;100849.53;;;0.16;70.51
75538;BME280;64121;48.666;8.114;2023-02-28T09:39:56;100855.66;;;0.23;70.41
75538;BME280;64121;48.666;8.114;2023-02-28T09:42:31;100850.34;;;0.17;69.77
75538;BME280;64121;48.666;8.114;2023-02-28T09:44:58;100857.38;;;0.35;69.44
75538;BME280;64121;48.666;8.114;2023-02-28T09:47:29;100865.84;;;0.33;68.98
75538;BME280;64121;48.666;8.114;2023-02-28T09:49:58;100864.50;;;0.36;69.33
75538;BME280;64121;48.666;8.114;2023-02-28T09:52:29;100856.34;;;0.41;68.99
75538;BME280;64121;48.666;8.114;2023-02-28T09:54:55;100860.25;;;0.50;68.97
75538;BME280;64121;48.666;8.114;2023-02-28T09:57:31;100865.16;;;0.48;68.39
75538;BME280;64121;48.666;8.114;2023-02-28T10:00:04;100869.78;;;0.42;67.91
75538;BME280;64121;48.666;8.114;2023-02-28T10:02:52;100870.94;;;0.51;67.88
75538;BME280;64121;48.666;8.114;2023-02-28T10:05:21;100879.13;;;0.46;68.26
75538;BME280;64121;48.666;8.114;2023-02-28T10:07:58;100873.56;;;0.68;67.74
75538;BME280;64121;48.666;8.114;2023-02-28T10:10:28;100868.69;;;0.75;67.77
75538;BME280;64121;48.666;8.114;2023-02-28T10:12:56;100871.84;;;0.57;67.60
75538;BME280;64121;48.666;8.114;2023-02-28T10:15:25;100874.63;;;0.67;67.46
75538;BME280;64121;48.666;8.114;2023-02-28T10:17:56;100869.31;;;0.87;67.27
75538;BME280;64121;48.666;8.114;2023-02-28T10:20:23;100879.41;;;0.82;66.63
75538;BME280;64121;48.666;8.114;2023-02-28T10:22:56;100879.81;;;0.96;67.04
75538;BME280;64121;48.666;8.114;2023-02-28T10:25:24;100880.06;;;0.94;66.77
75538;BME280;64121;48.666;8.114;2023-02-28T10:27:52;100864.97;;;0.91;66.63
75538;BME280;64121;48.666;8.114;2023-02-28T10:30:19;100880.22;;;0.77;66.54
75538;BME280;64121;48.666;8.114;2023-02-28T10:32:49;100881.47;;;1.02;66.74
75538;BME280;64121;48.666;8.114;2023-02-28T10:35:16;100874.19;;;1.17;67.20
75538;BME280;64121;48.666;8.114;2023-02-28T10:37:45;100883.59;;;1.32;65.49
75538;BME280;64121;48.666;8.114;2023-02-28T10:40:30;100874.03;;;1.34;65.29
75538;BME280;64121;48.666;8.114;2023-02-28T10:42:59;100894.69;;;1.57;64.18
75538;BME280;64121;48.666;8.114;2023-02-28T10:45:25;100891.56;;;1.33;64.43
75538;BME280;64121;48.666;8.114;2023-02-28T10:47:53;100884.75;;;1.41;64.98
75538;BME280;64121;48.666;8.114;2023-02-28T10:50:28;100888.19;;;1.73;63.16
75538;BME280;64121;48.666;8.114;2023-02-28T10:52:54;100887.03;;;1.64;63.02
75538;BME280;64121;48.666;8.114;2023-02-28T10:55:24;100872.47;;;1.54;63.38
75538;BME280;64121;48.666;8.114;2023-02-28T10:57:49;100887.66;;;1.71;63.45
75538;BME280;64121;48.666;8.114;2023-02-28T11:00:17;100884.69;;;1.93;62.13
75538;BME280;64121;48.666;8.114;2023-02-28T11:02:43;100888.00;;;1.90;60.84
75538;BME280;64121;48.666;8.114;2023-02-28T11:05:25;100897.94;;;2.06;60.46
75538;BME280;64121;48.666;8.114;2023-02-28T11:07:52;100888.03;;;2.05;60.16
75538;BME280;64121;48.666;8.114;2023-02-28T11:10:20;100894.69;;;2.25;59.59
75538;BME280;64121;48.666;8.114;2023-02-28T11:12:47;100892.16;;;2.08;59.45
75538;BME280;64121;48.666;8.114;2023-02-28T11:15:21;100888.06;;;2.16;59.79
75538;BME280;64121;48.666;8.114;2023-02-28T11:17:53;100879.53;;;2.07;59.76
75538;BME280;64121;48.666;8.114;2023-02-28T11:20:21;100888.09;;;2.31;59.40
75538;BME280;64121;48.666;8.114;2023-02-28T11:22:50;100889.47;;;2.38;58.74
75538;BME280;64121;48.666;8.114;2023-02-28T11:25:22;100883.97;;;2.28;59.46
75538;BME280;64121;48.666;8.114;2023-02-28T11:27:50;100892.50;;;2.32;59.40
75538;BME280;64121;48.666;8.114;2023-02-28T11:30:25;100887.50;;;2.08;58.79
75538;BME280;64121;48.666;8.114;2023-02-28T11:32:51;100885.00;;;2.02;58.94
75538;BME280;64121;48.666;8.114;2023-02-28T11:35:21;100887.28;;;2.40;58.75
75538;BME280;64121;48.666;8.114;2023-02-28T11:37:48;100880.16;;;2.45;57.88
75538;BME280;64121;48.666;8.114;2023-02-28T11:40:14;100886.19;;;2.36;59.06
75538;BME280;64121;48.666;8.114;2023-02-28T11:42:52;100882.88;;;2.39;58.84
75538;BME280;64121;48.666;8.114;2023-02-28T11:45:29;100879.09;;;2.61;58.47
75538;BME280;64121;48.666;8.114;2023-02-28T11:48:04;100878.78;;;2.93;57.77
75538;BME280;64121;48.666;8.114;2023-02-28T11:50:42;100885.94;;;2.99;56.85
75538;BME280;64121;48.666;8.114;2023-02-28T11:53:19;100885.66;;;2.95;57.67
75538;BME280;64121;48.666;8.114;2023-02-28T11:55:49;100885.88;;;3.34;57.33
75538;BME280;64121;48.666;8.114;2023-02-28T11:58:39;100883.63;;;3.57;56.45
75538;BME280;64121;48.666;8.114;2023-02-28T12:01:28;100885.00;;;3.59;55.43
75538;BME280;64121;48.666;8.114;2023-02-28T12:04:04;100884.22;;;3.33;55.35
75538;BME280;64121;48.666;8.114;2023-02-28T12:06:40;100883.56;;;3.67;55.13
75538;BME280;64121;48.666;8.114;2023-02-28T12:09:20;100873.75;;;4.10;54.63
75538;BME280;64121;48.666;8.114;2023-02-28T12:11:55;100874.59;;;3.36;55.53
75538;BME280;64121;48.666;8.114;2023-02-28T12:14:50;100870.66;;;4.22;54.52
75538;BME280;64121;48.666;8.114;2023-02-28T12:17:30;100876.75;;;4.58;52.98
75538;BME280;64121;48.666;8.114;2023-02-28T12:20:05;100875.03;;;4.62;52.13
75538;BME280;64121;48.666;8.114;2023-02-28T12:22:37;100868.81;;;5.14;51.02
75538;BME280;64121;48.666;8.114;2023-02-28T12:25:39;100862.22;;;4.47;51.03
75538;BME280;64121;48.666;8.114;2023-02-28T12:28:10;100871.03;;;4.49;52.19
75538;BME280;64121;48.666;8.114;2023-02-28T12:30:41;100861.09;;;4.82;53.11
75538;BME280;64121;48.666;8.114;2023-02-28T12:33:12;100859.78;;;5.33;50.99
75538;BME280;64121;48.666;8.114;2023-02-28T12:35:46;100867.25;;;4.74;51.98
75538;BME280;64121;48.666;8.114;2023-02-28T12:38:14;100862.81;;;5.07;51.46
75538;BME280;64121;48.666;8.114;2023-02-28T12:40:45;100857.59;;;5.06;50.63
75538;BME280;64121;48.666;8.114;2023-02-28T12:43:13;100858.06;;;4.84;50.67
75538;BME280;64121;48.666;8.114;2023-02-28T12:45:44;100859.44;;;4.81;52.34
75538;BME280;64121;48.666;8.114;2023-02-28T12:48:21;100850.59;;;5.13;51.35
75538;BME280;64121;48.666;8.114;2023-02-28T12:50:49;100840.72;;;4.44;50.32
75538;BME280;64121;48.666;8.114;2023-02-28T12:53:23;100843.28;;;5.04;51.18
75538;BME280;64121;48.666;8.114;2023-02-28T12:55:57;100832.19;;;5.57;48.51
75538;BME280;64121;48.666;8.114;2023-02-28T12:58:32;100830.59;;;5.03;50.32
75538;BME280;64121;48.666;8.114;2023-02-28T13:01:29;100836.84;;;5.61;50.33
75538;BME280;64121;48.666;8.114;2023-02-28T13:04:14;100832.16;;;5.62;48.99